createdAt,value
2023-04-18T00:01:17.982Z,25.20
2023-04-18T00:03:45.962Z,26.48
2023-04-18T00:06:14.512Z,24.25
2023-04-18T00:08:42.173Z,22.73
2023-04-18T00:11:09.668Z,18.95
2023-04-18T00:13:38.642Z,19.93
2023-04-18T00:16:08.079Z,17.55
2023-04-18T00:18:37.179Z,17.80
2023-04-18T00:21:04.956Z,16.58
2023-04-18T00:23:34.402Z,19.80
2023-04-18T00:26:02.111Z,17.30
2023-04-18T00:28:29.757Z,15.07
2023-04-18T00:30:57.437Z,13.13
2023-04-18T00:33:25.082Z,14.13
2023-04-18T00:35:54.702Z,16.80
2023-04-18T00:38:22.279Z,13.73
2023-04-18T00:40:49.884Z,18.55
2023-04-18T00:43:17.710Z,15.38
2023-04-18T00:45:45.306Z,11.30
2023-04-18T00:48:12.968Z,11.80
2023-04-18T00:50:41.762Z,11.97
2023-04-18T00:53:11.327Z,11.77
2023-04-18T00:55:39.849Z,12.32
2023-04-18T00:58:07.536Z,11.10
2023-04-18T01:00:35.578Z,19.92
2023-04-18T01:03:03.604Z,11.17
2023-04-18T01:05:31.348Z,11.68
2023-04-18T01:08:01.238Z,9.55
2023-04-18T01:10:30.062Z,8.38
2023-04-18T01:13:15.164Z,9.52
2023-04-18T01:15:44.313Z,12.77
2023-04-18T01:18:13.237Z,10.80
2023-04-18T01:20:44.039Z,12.82
2023-04-18T01:23:11.693Z,11.85
2023-04-18T01:25:39.443Z,10.05
2023-04-18T01:28:07.549Z,11.00
2023-04-18T01:30:35.283Z,10.45
2023-04-18T01:33:05.051Z,11.75
2023-04-18T01:35:34.070Z,9.43
2023-04-18T01:38:01.899Z,12.85
2023-04-18T01:40:30.272Z,10.97
2023-04-18T01:42:57.847Z,8.00
2023-04-18T01:45:25.516Z,10.55
2023-04-18T01:47:53.130Z,10.57
2023-04-18T01:50:20.887Z,9.57
2023-04-18T01:52:48.598Z,12.60
2023-04-18T01:55:16.923Z,10.43
2023-04-18T01:57:44.617Z,9.68
2023-04-18T02:00:12.775Z,8.85
2023-04-18T02:02:43.624Z,12.18
2023-04-18T02:05:11.477Z,11.33
2023-04-18T02:07:41.197Z,12.13
2023-04-18T02:10:11.101Z,12.07
2023-04-18T02:12:39.052Z,8.55
2023-04-18T02:15:07.216Z,10.70
2023-04-18T02:17:37.415Z,7.57
2023-04-18T02:20:05.580Z,9.27
2023-04-18T02:22:33.187Z,8.93
2023-04-18T02:25:02.555Z,11.65
2023-04-18T02:27:31.842Z,9.95
2023-04-18T02:29:59.492Z,9.63
2023-04-18T02:32:27.086Z,10.85
2023-04-18T02:34:54.605Z,9.13
2023-04-18T02:37:22.129Z,8.68
2023-04-18T02:39:51.081Z,8.75
2023-04-18T02:42:18.670Z,10.33
2023-04-18T02:44:46.219Z,8.98
2023-04-18T02:47:13.801Z,7.85
2023-04-18T02:49:43.573Z,10.07
2023-04-18T02:52:11.241Z,8.98
2023-04-18T02:54:38.809Z,10.13
2023-04-18T02:57:11.174Z,10.95
2023-04-18T02:59:58.980Z,11.82
2023-04-18T03:02:49.713Z,8.88
2023-04-18T03:05:35.986Z,10.77
2023-04-18T03:08:05.981Z,11.40
2023-04-18T03:10:34.911Z,8.82
2023-04-18T03:13:02.761Z,9.07
2023-04-18T03:15:33.318Z,8.80
2023-04-18T03:18:01.517Z,10.13
2023-04-18T03:20:33.103Z,13.93
2023-04-18T03:23:00.862Z,9.10
2023-04-18T03:25:30.656Z,13.93
2023-04-18T03:27:58.937Z,11.85
2023-04-18T03:30:27.875Z,11.30
2023-04-18T03:32:58.798Z,10.70
2023-04-18T03:35:26.565Z,10.18
2023-04-18T03:37:54.216Z,12.85
2023-04-18T03:40:27.092Z,9.02
2023-04-18T03:43:02.349Z,11.50
2023-04-18T03:45:30.308Z,11.53
2023-04-18T03:47:57.934Z,14.02
2023-04-18T03:50:26.170Z,11.93
2023-04-18T03:52:55.732Z,9.38
2023-04-18T03:55:23.327Z,11.55
2023-04-18T03:57:51.619Z,10.83
2023-04-18T04:00:28.076Z,9.63
2023-04-18T04:03:02.085Z,12.02
2023-04-18T04:05:30.145Z,14.02
2023-04-18T04:07:57.908Z,11.48
2023-04-18T04:10:25.668Z,10.73
2023-04-18T04:12:54.214Z,12.32
2023-04-18T04:15:22.130Z,12.52
2023-04-18T04:18:02.166Z,14.52
2023-04-18T04:20:30.717Z,12.93
2023-04-18T04:23:10.693Z,16.10
2023-04-18T04:25:40.144Z,12.82
2023-04-18T04:28:16.113Z,12.57
2023-04-18T04:30:53.347Z,13.43
2023-04-18T04:33:28.469Z,15.55
2023-04-18T04:36:01.360Z,15.07
2023-04-18T04:38:31.281Z,15.98
2023-04-18T04:40:59.854Z,14.55
2023-04-18T04:43:28.870Z,14.07
2023-04-18T04:45:57.834Z,14.48
2023-04-18T04:48:25.553Z,17.67
2023-04-18T04:50:56.774Z,14.75
2023-04-18T04:53:26.718Z,13.48
2023-04-18T04:55:54.703Z,13.27
2023-04-18T04:58:23.365Z,12.00
2023-04-18T05:00:59.784Z,13.20
2023-04-18T05:03:27.922Z,14.35
2023-04-18T05:05:55.688Z,13.48
2023-04-18T05:08:23.290Z,14.63
2023-04-18T05:10:51.190Z,16.02
2023-04-18T05:13:18.857Z,11.03
2023-04-18T05:15:46.455Z,18.08
2023-04-18T05:18:14.486Z,14.65
2023-04-18T05:20:42.039Z,17.33
2023-04-18T05:23:09.606Z,18.73
2023-04-18T05:25:37.244Z,17.97
2023-04-18T05:28:04.898Z,15.35
2023-04-18T05:30:32.448Z,15.15
2023-04-18T05:33:00.117Z,17.30
2023-04-18T05:35:27.827Z,18.05
2023-04-18T05:37:55.494Z,18.27
2023-04-18T05:40:23.235Z,23.25
2023-04-18T05:42:50.819Z,21.92
2023-04-18T05:45:18.556Z,20.13
2023-04-18T05:47:46.244Z,23.67
2023-04-18T05:50:13.803Z,21.23
2023-04-18T05:52:41.329Z,21.10
2023-04-18T05:55:09.334Z,20.65
2023-04-18T05:57:37.252Z,17.17
2023-04-18T06:00:11.473Z,19.52
2023-04-18T06:02:42.139Z,19.10
2023-04-18T06:05:10.267Z,18.13
2023-04-18T06:07:38.221Z,16.45
2023-04-18T06:10:09.289Z,20.17
2023-04-18T06:12:37.305Z,17.60
2023-04-18T06:15:05.835Z,19.27
2023-04-18T06:17:34.976Z,20.50
2023-04-18T06:20:04.449Z,20.55
2023-04-18T06:22:34.062Z,19.25
2023-04-18T06:25:01.784Z,20.63
2023-04-18T06:27:31.672Z,19.87
2023-04-18T06:29:59.779Z,20.88
2023-04-18T06:32:27.516Z,24.60
2023-04-18T06:34:55.486Z,19.08
2023-04-18T06:37:23.594Z,19.98
2023-04-18T06:39:51.341Z,19.83
2023-04-18T06:42:21.593Z,19.15
2023-04-18T06:44:50.513Z,20.42
2023-04-18T06:47:18.527Z,17.33
2023-04-18T06:49:46.110Z,17.38
2023-04-18T06:52:13.839Z,16.57
2023-04-18T06:54:41.425Z,18.35
2023-04-18T06:57:09.414Z,21.30
2023-04-18T06:59:37.565Z,19.33
2023-04-18T07:02:05.195Z,15.70
2023-04-18T07:04:32.843Z,19.47
2023-04-18T07:07:01.846Z,17.98
2023-04-18T07:09:29.670Z,19.13
2023-04-18T07:11:57.276Z,19.00
2023-04-18T07:14:25.302Z,18.55
2023-04-18T07:16:52.903Z,15.80
2023-04-18T07:19:20.603Z,18.33
2023-04-18T07:21:48.390Z,20.15
2023-04-18T07:24:16.373Z,23.38
2023-04-18T07:26:44.121Z,21.17
2023-04-18T07:29:11.792Z,20.97
2023-04-18T07:31:39.450Z,19.88
2023-04-18T07:34:07.112Z,23.25
2023-04-18T07:36:34.699Z,18.42
2023-04-18T07:39:02.257Z,18.75
2023-04-18T07:41:29.859Z,21.70
2023-04-18T07:43:57.465Z,20.40
2023-04-18T07:46:25.089Z,20.90
2023-04-18T07:48:52.641Z,21.90
2023-04-18T07:51:20.583Z,22.65
2023-04-18T07:53:48.226Z,23.10
2023-04-18T07:56:15.902Z,22.08
2023-04-18T07:58:43.515Z,23.48
2023-04-18T08:01:14.194Z,23.70
2023-04-18T08:03:42.073Z,24.05
2023-04-18T08:06:10.045Z,23.77
2023-04-18T08:08:37.835Z,24.92
2023-04-18T08:11:05.488Z,24.17
2023-04-18T08:13:33.147Z,21.20
2023-04-18T08:16:02.359Z,23.88
2023-04-18T08:18:30.248Z,25.87
2023-04-18T08:20:57.789Z,22.90
2023-04-18T08:23:25.504Z,24.45
2023-04-18T08:25:53.064Z,20.30
2023-04-18T08:28:21.011Z,25.45
2023-04-18T08:30:57.276Z,21.63
2023-04-18T08:33:26.505Z,20.80
2023-04-18T08:35:54.423Z,22.20
2023-04-18T08:38:22.867Z,20.60
2023-04-18T08:40:50.540Z,20.52
2023-04-18T08:43:18.251Z,19.33
2023-04-18T08:45:47.388Z,17.83
2023-04-18T08:48:16.463Z,19.40
2023-04-18T08:50:44.987Z,17.73
2023-04-18T08:53:12.701Z,19.30
2023-04-18T08:55:40.686Z,16.30
2023-04-18T08:58:08.259Z,15.63
2023-04-18T09:00:35.817Z,18.48
2023-04-18T09:03:04.041Z,15.50
2023-04-18T09:05:31.799Z,14.13
2023-04-18T09:07:59.431Z,15.63
2023-04-18T09:10:29.019Z,14.43
2023-04-18T09:12:58.037Z,17.13
2023-04-18T09:15:27.477Z,19.00
2023-04-18T09:17:58.037Z,18.00
2023-04-18T09:20:41.359Z,16.90
2023-04-18T09:23:11.583Z,16.20
2023-04-18T09:25:44.740Z,13.65
2023-04-18T09:28:29.321Z,17.08
2023-04-18T09:31:09.668Z,17.42
2023-04-18T09:33:38.652Z,15.73
2023-04-18T09:36:21.024Z,15.07
2023-04-18T09:38:49.901Z,15.35
2023-04-18T09:41:20.756Z,14.98
2023-04-18T09:43:49.889Z,18.60
2023-04-18T09:46:22.669Z,17.67
2023-04-18T09:48:50.570Z,19.27
2023-04-18T09:51:18.467Z,17.90
2023-04-18T09:53:47.654Z,19.23
2023-04-18T09:56:23.903Z,20.10
2023-04-18T09:58:57.126Z,20.30
2023-04-18T10:01:29.620Z,21.23
2023-04-18T10:03:57.880Z,22.08
2023-04-18T10:06:27.999Z,21.00
2023-04-18T10:08:56.311Z,27.08
2023-04-18T10:11:24.404Z,22.93
2023-04-18T10:13:57.540Z,22.10
2023-04-18T10:16:26.372Z,22.88
2023-04-18T10:18:54.020Z,22.08
2023-04-18T10:21:21.813Z,27.70
2023-04-18T10:23:50.410Z,23.20
2023-04-18T10:26:18.109Z,27.17
2023-04-18T10:28:57.264Z,22.58
2023-04-18T10:31:29.193Z,23.02
2023-04-18T10:34:17.696Z,20.85
2023-04-18T10:37:03.832Z,22.07
2023-04-18T10:39:46.700Z,19.40
2023-04-18T10:42:14.590Z,19.65
2023-04-18T10:44:42.095Z,21.75
2023-04-18T10:47:20.730Z,31.08
2023-04-18T10:49:55.067Z,24.40
2023-04-18T10:52:22.762Z,20.92
2023-04-18T10:55:05.721Z,22.88
2023-04-18T10:57:43.713Z,22.48
2023-04-18T11:00:14.069Z,21.77
2023-04-18T11:02:50.253Z,22.37
2023-04-18T11:05:26.867Z,21.13
2023-04-18T11:07:54.893Z,17.98
2023-04-18T11:10:25.610Z,19.25
2023-04-18T11:12:54.881Z,19.80
2023-04-18T11:15:24.001Z,19.00
2023-04-18T11:18:05.128Z,15.80
2023-04-18T11:20:46.073Z,19.52
2023-04-18T11:23:23.116Z,16.85
2023-04-18T11:25:56.541Z,17.85
2023-04-18T11:28:27.646Z,17.23
2023-04-18T11:31:00.274Z,16.48
2023-04-18T11:33:29.471Z,16.02
2023-04-18T11:36:42.267Z,16.20
2023-04-18T11:52:35.588Z,11.50
2023-04-18T11:55:27.629Z,13.73
2023-04-18T11:58:15.992Z,12.77
2023-04-18T12:00:43.641Z,14.03
2023-04-18T12:03:19.021Z,11.77
2023-04-18T12:05:47.101Z,10.52
2023-04-18T12:08:20.751Z,11.18
2023-04-18T12:23:45.201Z,10.20
2023-04-18T12:26:21.220Z,11.07
2023-04-18T12:28:52.916Z,9.90
2023-04-18T12:34:26.692Z,14.52
2023-04-18T12:36:54.351Z,13.20
2023-04-18T12:39:21.943Z,11.13
2023-04-18T12:41:50.003Z,12.52
2023-04-18T12:44:17.765Z,14.33
2023-04-18T12:46:45.423Z,12.50
2023-04-18T12:49:31.056Z,11.63
2023-04-18T12:51:58.852Z,15.02
2023-04-18T12:54:26.538Z,13.50
2023-04-18T12:56:54.227Z,11.57
2023-04-18T12:59:21.809Z,13.88
2023-04-18T13:01:49.442Z,16.38
2023-04-18T13:04:17.252Z,16.30
2023-04-18T13:06:45.344Z,12.40
2023-04-18T13:09:13.092Z,16.70
2023-04-18T13:11:40.850Z,13.13
2023-04-18T13:14:08.572Z,12.85
2023-04-18T13:16:36.306Z,11.57
2023-04-18T13:19:03.889Z,10.80
2023-04-18T13:21:31.486Z,14.90
2023-04-18T13:23:59.170Z,14.13
2023-04-18T13:26:26.974Z,14.73
2023-04-18T13:28:54.678Z,12.65
2023-04-18T13:31:22.266Z,13.23
2023-04-18T13:33:49.834Z,15.87
2023-04-18T13:36:18.045Z,12.80
2023-04-18T13:38:46.319Z,12.38
2023-04-18T13:41:13.945Z,13.15
2023-04-18T13:43:41.557Z,13.70
2023-04-18T13:46:09.268Z,13.67
2023-04-18T13:48:36.973Z,13.57
2023-04-18T13:51:04.783Z,11.65
2023-04-18T13:53:32.640Z,13.00
2023-04-18T13:56:01.827Z,12.80
2023-04-18T13:58:29.720Z,13.10
2023-04-18T14:00:57.334Z,11.55
2023-04-18T14:03:25.172Z,19.33
2023-04-18T14:05:52.928Z,12.65
2023-04-18T14:08:21.068Z,14.40
2023-04-18T14:10:48.636Z,10.73
2023-04-18T14:13:16.908Z,13.27
2023-04-18T14:15:44.516Z,11.85
2023-04-18T14:18:12.163Z,10.93
2023-04-18T14:20:39.866Z,10.82
2023-04-18T14:23:07.401Z,13.07
2023-04-18T14:25:35.166Z,10.80
2023-04-18T14:28:09.698Z,11.55
2023-04-18T14:30:39.225Z,9.15
2023-04-18T14:33:09.205Z,9.27
2023-04-18T14:35:37.240Z,8.90
2023-04-18T14:38:04.829Z,9.65
2023-04-18T14:40:33.099Z,8.90
2023-04-18T14:43:00.819Z,8.43
2023-04-18T14:45:28.467Z,8.05
2023-04-18T14:47:56.154Z,9.53
2023-04-18T14:50:23.983Z,9.00
2023-04-18T14:52:51.578Z,9.50
2023-04-18T14:55:20.226Z,8.38
2023-04-18T14:57:48.138Z,7.93
2023-04-18T15:00:16.039Z,6.90
2023-04-18T15:02:44.038Z,8.05
2023-04-18T15:05:12.519Z,7.45
2023-04-18T15:07:41.249Z,6.72
2023-04-18T15:10:10.458Z,7.88
2023-04-18T15:12:38.152Z,7.43
2023-04-18T15:15:06.694Z,8.48
2023-04-18T15:17:34.195Z,8.10
2023-04-18T15:20:01.987Z,9.73
2023-04-18T15:22:29.785Z,9.15
2023-04-18T15:24:57.903Z,6.13
2023-04-18T15:27:25.611Z,8.90
2023-04-18T15:29:53.567Z,9.55
2023-04-18T15:32:22.126Z,7.50
2023-04-18T15:34:49.779Z,6.32
2023-04-18T15:37:17.391Z,6.50
2023-04-18T15:39:45.027Z,7.75
2023-04-18T15:42:12.712Z,9.25
2023-04-18T15:44:40.447Z,6.40
2023-04-18T15:47:08.133Z,8.48
2023-04-18T15:49:35.971Z,6.57
2023-04-18T15:52:03.733Z,5.80
2023-04-18T15:54:31.281Z,6.38
2023-04-18T15:56:58.901Z,8.52
2023-04-18T15:59:26.488Z,6.50
2023-04-18T16:01:54.192Z,5.87
2023-04-18T16:04:21.907Z,5.55
2023-04-18T16:06:49.608Z,5.32
2023-04-18T16:09:17.113Z,4.95
2023-04-18T16:11:44.693Z,7.45
2023-04-18T16:14:12.730Z,11.50
2023-04-18T16:16:40.479Z,8.40
2023-04-18T16:19:08.089Z,7.07
2023-04-18T16:21:35.711Z,6.85
2023-04-18T16:24:03.292Z,6.00
2023-04-18T16:26:30.869Z,6.20
2023-04-18T16:28:58.623Z,7.28
2023-04-18T16:31:26.354Z,6.05
2023-04-18T16:33:54.105Z,6.63
2023-04-18T16:36:21.815Z,5.65
2023-04-18T16:38:49.411Z,7.57
2023-04-18T16:41:16.944Z,6.78
2023-04-18T16:43:44.567Z,6.20
2023-04-18T16:46:13.835Z,7.47
2023-04-18T16:48:41.820Z,7.30
2023-04-18T16:51:09.369Z,5.80
2023-04-18T16:53:36.984Z,6.97
2023-04-18T16:56:04.853Z,6.85
2023-04-18T16:58:32.844Z,5.63
2023-04-18T17:01:02.444Z,6.85
2023-04-18T17:03:30.260Z,7.17
2023-04-18T17:05:58.016Z,6.53
2023-04-18T17:08:27.167Z,9.15
2023-04-18T17:10:55.469Z,7.82
2023-04-18T17:13:26.913Z,9.00
2023-04-18T17:15:54.762Z,10.20
2023-04-18T17:18:22.440Z,6.47
2023-04-18T17:20:50.063Z,8.77
2023-04-18T17:23:19.392Z,8.43
2023-04-18T17:25:47.714Z,7.50
2023-04-18T17:28:15.398Z,10.60
2023-04-18T17:30:43.047Z,7.95
2023-04-18T17:33:11.156Z,7.30
2023-04-18T17:35:41.747Z,9.10
2023-04-18T17:38:10.676Z,10.23
2023-04-18T17:40:39.480Z,7.23
2023-04-18T17:43:07.088Z,7.82
2023-04-18T17:45:34.689Z,7.50
2023-04-18T17:48:03.136Z,9.15
2023-04-18T17:50:31.026Z,9.45
2023-04-18T17:52:58.655Z,8.63
2023-04-18T17:55:26.695Z,7.70
2023-04-18T17:57:54.252Z,8.85
2023-04-18T18:00:21.944Z,9.68
2023-04-18T18:02:49.728Z,8.80
2023-04-18T18:05:17.412Z,9.93
2023-04-18T18:07:47.714Z,9.98
2023-04-18T18:10:22.414Z,10.32
2023-04-18T18:12:50.169Z,7.60
2023-04-18T18:15:18.280Z,8.48
2023-04-18T18:17:48.858Z,11.13
2023-04-18T18:20:17.262Z,12.38
2023-04-18T18:22:44.799Z,9.20
2023-04-18T18:25:13.267Z,9.20
2023-04-18T18:27:40.987Z,9.57
2023-04-18T18:30:09.005Z,9.33
2023-04-18T18:32:36.614Z,9.20
2023-04-18T18:35:06.073Z,8.90
2023-04-18T18:37:33.791Z,8.38
2023-04-18T18:40:04.992Z,12.30
2023-04-18T18:42:32.604Z,9.63
2023-04-18T18:45:01.695Z,8.98
2023-04-18T18:47:30.663Z,9.20
2023-04-18T18:49:58.312Z,12.57
2023-04-18T18:52:28.141Z,11.20
2023-04-18T18:54:55.839Z,9.67
2023-04-18T18:57:23.469Z,11.73
2023-04-18T18:59:51.056Z,12.02
2023-04-18T19:02:19.201Z,13.10
2023-04-18T19:04:47.677Z,12.23
2023-04-18T19:07:16.048Z,12.13
2023-04-18T19:09:43.686Z,14.00
2023-04-18T19:12:11.258Z,9.27
2023-04-18T19:14:40.232Z,9.02
2023-04-18T19:17:09.028Z,9.73
2023-04-18T19:19:36.550Z,8.97
2023-04-18T19:22:04.277Z,9.90
2023-04-18T19:24:32.125Z,10.15
2023-04-18T19:26:59.849Z,10.48
2023-04-18T19:29:27.358Z,10.30
2023-04-18T19:31:55.488Z,8.07
2023-04-18T19:34:23.143Z,8.52
2023-04-18T19:36:50.743Z,12.50
2023-04-18T19:39:18.393Z,9.90
2023-04-18T19:41:46.169Z,9.93
2023-04-18T19:44:13.687Z,8.63
2023-04-18T19:46:41.320Z,9.05
2023-04-18T19:49:08.865Z,8.27
2023-04-18T19:51:36.523Z,13.75
2023-04-18T19:54:04.750Z,10.00
2023-04-18T19:56:32.440Z,11.70
2023-04-18T19:59:00.118Z,8.93
2023-04-18T20:01:27.938Z,10.25
2023-04-18T20:03:58.669Z,8.98
2023-04-18T20:06:27.205Z,9.13
2023-04-18T20:08:55.113Z,9.07
2023-04-18T20:11:22.769Z,12.60
2023-04-18T20:13:52.311Z,12.35
2023-04-18T20:16:21.347Z,10.00
2023-04-18T20:18:51.899Z,10.38
2023-04-18T20:21:20.698Z,12.00
2023-04-18T20:23:48.282Z,8.85
2023-04-18T20:26:15.865Z,10.02
2023-04-18T20:28:43.493Z,10.40
2023-04-18T20:31:12.815Z,12.48
2023-04-18T20:33:40.411Z,10.87
2023-04-18T20:36:08.793Z,10.88
2023-04-18T20:38:36.943Z,13.43
2023-04-18T20:41:06.248Z,10.88
2023-04-18T20:43:37.349Z,10.32
2023-04-18T20:46:04.997Z,11.30
2023-04-18T20:48:32.788Z,12.02
2023-04-18T20:51:00.468Z,11.00
2023-04-18T20:53:29.112Z,12.18
2023-04-18T20:55:56.715Z,10.45
2023-04-18T20:58:24.358Z,13.83
2023-04-18T21:00:52.202Z,12.82
2023-04-18T21:03:19.884Z,13.07
2023-04-18T21:05:47.597Z,14.68
2023-04-18T21:08:15.160Z,13.65
2023-04-18T21:10:42.776Z,16.83
2023-04-18T21:13:12.735Z,14.40
2023-04-18T21:15:42.325Z,12.75
2023-04-18T21:18:10.081Z,13.00
2023-04-18T21:20:37.839Z,18.40
2023-04-18T21:23:05.448Z,15.30
2023-04-18T21:25:33.080Z,10.95
2023-04-18T21:28:00.993Z,14.05
2023-04-18T21:30:28.609Z,13.18
2023-04-18T21:32:56.239Z,12.88
2023-04-18T21:35:24.870Z,16.63
2023-04-18T21:37:52.815Z,14.68
2023-04-18T21:40:20.435Z,12.48
2023-04-18T21:42:51.585Z,14.65
2023-04-18T21:45:19.231Z,12.02
2023-04-18T21:47:47.125Z,11.10
2023-04-18T21:50:14.775Z,15.00
2023-04-18T21:52:42.431Z,12.43
2023-04-18T21:55:10.216Z,12.10
2023-04-18T21:57:37.786Z,12.43
2023-04-18T22:00:08.419Z,16.33
2023-04-18T22:02:37.741Z,17.98
2023-04-18T22:05:05.813Z,14.65
2023-04-18T22:07:40.797Z,13.15
2023-04-18T22:10:14.120Z,13.30
2023-04-18T22:12:42.538Z,12.93
2023-04-18T22:15:10.586Z,14.30
2023-04-18T22:17:38.347Z,15.27
2023-04-18T22:20:08.061Z,14.85
2023-04-18T22:22:35.669Z,13.40
2023-04-18T22:25:03.691Z,14.33
2023-04-18T22:27:31.311Z,14.60
2023-04-18T22:29:58.872Z,16.63
2023-04-18T22:32:26.509Z,18.85
2023-04-18T22:34:54.093Z,15.00
2023-04-18T22:37:21.762Z,18.17
2023-04-18T22:39:49.331Z,17.83
2023-04-18T22:42:16.855Z,14.48
2023-04-18T22:44:44.446Z,14.23
2023-04-18T22:47:12.436Z,15.77
2023-04-18T22:49:40.467Z,17.37
2023-04-18T22:52:08.416Z,19.35
2023-04-18T22:54:40.374Z,16.85
2023-04-18T22:57:09.437Z,17.42
2023-04-18T22:59:37.244Z,16.13
2023-04-18T23:02:04.876Z,16.40
2023-04-18T23:04:32.851Z,13.90
2023-04-18T23:07:00.477Z,15.18
2023-04-18T23:09:31.240Z,17.48
2023-04-18T23:11:58.895Z,16.73
2023-04-18T23:14:26.653Z,14.17
2023-04-18T23:16:54.328Z,13.00
2023-04-18T23:19:22.191Z,16.33
2023-04-18T23:21:49.957Z,15.20
2023-04-18T23:24:17.572Z,18.08
2023-04-18T23:26:45.524Z,15.40
2023-04-18T23:29:13.067Z,16.73
2023-04-18T23:31:41.088Z,12.85
2023-04-18T23:34:10.721Z,14.73
2023-04-18T23:36:40.452Z,14.43
2023-04-18T23:39:08.718Z,15.30
2023-04-18T23:41:36.303Z,17.02
2023-04-18T23:44:03.946Z,14.52
2023-04-18T23:46:31.607Z,15.07
2023-04-18T23:48:59.264Z,17.40
2023-04-18T23:51:28.113Z,13.50
2023-04-18T23:53:55.660Z,15.82
2023-04-18T23:56:23.289Z,9.30
2023-04-18T23:58:50.941Z,15.80
